createdAt,value
2022-11-04T00:00:26.854Z,954.46
2022-11-04T00:01:24.978Z,954.44
2022-11-04T00:02:24.083Z,954.48
2022-11-04T00:03:23.951Z,954.50
2022-11-04T00:04:23.977Z,954.45
2022-11-04T00:05:23.891Z,954.53
2022-11-04T00:06:24.886Z,954.55
2022-11-04T00:07:23.900Z,954.56
2022-11-04T00:08:23.854Z,954.55
2022-11-04T00:09:23.868Z,954.61
2022-11-04T00:10:23.814Z,954.70
2022-11-04T00:11:23.786Z,954.62
2022-11-04T00:12:23.808Z,954.64
2022-11-04T00:13:23.765Z,954.65
2022-11-04T00:14:23.736Z,954.64
2022-11-04T00:15:23.724Z,954.71
2022-11-04T00:16:23.715Z,954.61
2022-11-04T00:17:23.721Z,954.61
2022-11-04T00:18:23.674Z,954.66
2022-11-04T00:19:23.648Z,954.64
2022-11-04T00:20:23.659Z,954.69
2022-11-04T00:21:23.628Z,954.70
2022-11-04T00:22:23.643Z,954.73
2022-11-04T00:23:23.587Z,954.71
2022-11-04T00:24:23.565Z,954.65
2022-11-04T00:25:23.557Z,954.69
2022-11-04T00:26:23.572Z,954.68
2022-11-04T00:27:23.552Z,954.58
2022-11-04T00:28:23.496Z,954.76
2022-11-04T00:29:23.513Z,954.76
2022-11-04T00:30:23.460Z,954.70
2022-11-04T00:31:23.454Z,954.74
2022-11-04T00:32:23.467Z,954.71
2022-11-04T00:33:23.430Z,954.87
2022-11-04T00:34:23.584Z,954.86
2022-11-04T00:35:23.388Z,954.89
2022-11-04T00:36:23.359Z,954.99
2022-11-04T00:37:23.374Z,955.01
2022-11-04T00:38:23.342Z,955.01
2022-11-04T00:39:23.312Z,955.06
2022-11-04T00:40:23.303Z,955.01
2022-11-04T00:41:23.283Z,954.97
2022-11-04T00:42:23.315Z,954.86
2022-11-04T00:43:23.233Z,954.89
2022-11-04T00:44:23.229Z,954.85
2022-11-04T00:45:23.214Z,954.84
2022-11-04T00:46:23.251Z,954.83
2022-11-04T00:47:23.202Z,954.84
2022-11-04T00:48:23.159Z,954.91
2022-11-04T00:49:23.140Z,954.98
2022-11-04T00:50:23.115Z,955.15
2022-11-04T00:51:23.120Z,955.17
2022-11-04T00:52:23.132Z,955.26
2022-11-04T00:53:23.065Z,955.22
2022-11-04T00:54:23.045Z,955.20
2022-11-04T00:55:23.039Z,955.25
2022-11-04T00:56:23.048Z,955.30
2022-11-04T00:57:23.017Z,955.24
2022-11-04T00:58:22.984Z,955.20
2022-11-04T00:59:22.965Z,955.27
2022-11-04T01:00:22.938Z,955.23
2022-11-04T01:01:23.028Z,955.21
2022-11-04T01:02:23.208Z,955.29
2022-11-04T01:03:22.903Z,955.21
2022-11-04T01:04:22.881Z,955.25
2022-11-04T01:05:22.867Z,955.14
2022-11-04T01:06:22.850Z,955.19
2022-11-04T01:07:22.858Z,955.18
2022-11-04T01:08:22.806Z,955.27
2022-11-04T01:09:22.791Z,955.27
2022-11-04T01:10:22.769Z,955.29
2022-11-04T01:11:22.755Z,955.36
2022-11-04T01:12:22.763Z,955.37
2022-11-04T01:13:22.739Z,955.36
2022-11-04T01:14:22.709Z,955.42
2022-11-04T01:15:22.679Z,955.38
2022-11-04T01:16:22.705Z,955.44
2022-11-04T01:17:22.688Z,955.39
2022-11-04T01:18:22.627Z,955.45
2022-11-04T01:19:22.611Z,955.40
2022-11-04T01:20:22.601Z,955.40
2022-11-04T01:21:22.595Z,955.44
2022-11-04T01:22:22.584Z,955.50
2022-11-04T01:23:22.544Z,955.46
2022-11-04T01:24:22.533Z,955.46
2022-11-04T01:25:22.511Z,955.48
2022-11-04T01:26:22.494Z,955.52
2022-11-04T01:27:22.501Z,955.44
2022-11-04T01:28:22.468Z,955.50
2022-11-04T01:29:22.440Z,955.48
2022-11-04T01:30:22.416Z,955.52
2022-11-04T01:31:22.408Z,955.46
2022-11-04T01:32:22.424Z,955.40
2022-11-04T01:33:22.370Z,955.50
2022-11-04T01:34:22.362Z,955.47
2022-11-04T01:35:22.349Z,955.46
2022-11-04T01:36:22.312Z,955.52
2022-11-04T01:37:22.330Z,955.54
2022-11-04T01:38:22.279Z,955.54
2022-11-04T01:39:22.284Z,955.56
2022-11-04T01:40:22.249Z,955.55
2022-11-04T01:41:22.239Z,955.54
2022-11-04T01:42:23.246Z,955.48
2022-11-04T01:43:22.207Z,955.47
2022-11-04T01:44:22.286Z,955.49
2022-11-04T01:45:22.207Z,955.53
2022-11-04T01:46:22.140Z,955.46
2022-11-04T01:47:22.185Z,955.45
2022-11-04T01:48:22.111Z,955.47
2022-11-04T01:49:22.088Z,955.46
2022-11-04T01:50:22.093Z,955.45
2022-11-04T01:51:22.099Z,955.45
2022-11-04T01:52:22.069Z,955.49
2022-11-04T01:53:22.027Z,955.47
2022-11-04T01:54:22.023Z,955.54
2022-11-04T01:55:21.987Z,955.54
2022-11-04T01:56:21.982Z,955.51
2022-11-04T01:57:21.991Z,955.58
2022-11-04T01:58:21.949Z,955.55
2022-11-04T01:59:21.922Z,955.56
2022-11-04T02:00:21.910Z,955.57
2022-11-04T02:01:21.930Z,955.56
2022-11-04T02:02:22.085Z,955.50
2022-11-04T02:03:21.939Z,955.49
2022-11-04T02:04:21.883Z,955.49
2022-11-04T02:05:21.817Z,955.48
2022-11-04T02:06:21.805Z,955.54
2022-11-04T02:07:22.834Z,955.55
2022-11-04T02:08:21.766Z,955.62
2022-11-04T02:09:21.767Z,955.59
2022-11-04T02:10:21.734Z,955.61
2022-11-04T02:11:21.732Z,955.54
2022-11-04T02:12:21.733Z,955.48
2022-11-04T02:13:21.694Z,955.50
2022-11-04T02:14:21.674Z,955.53
2022-11-04T02:15:21.655Z,955.53
2022-11-04T02:16:21.625Z,955.53
2022-11-04T02:17:21.644Z,955.61
2022-11-04T02:18:21.812Z,955.56
2022-11-04T02:19:21.610Z,955.56
2022-11-04T02:20:21.585Z,955.53
2022-11-04T02:21:21.544Z,955.58
2022-11-04T02:22:21.560Z,955.58
2022-11-04T02:23:21.511Z,955.65
2022-11-04T02:24:21.491Z,955.66
2022-11-04T02:25:21.470Z,955.65
2022-11-04T02:26:21.454Z,955.74
2022-11-04T02:27:21.483Z,955.78
2022-11-04T02:28:21.436Z,955.82
2022-11-04T02:29:21.414Z,955.82
2022-11-04T02:30:21.402Z,955.80
2022-11-04T02:31:21.381Z,955.81
2022-11-04T02:32:21.381Z,955.76
2022-11-04T02:33:21.338Z,955.76
2022-11-04T02:34:21.328Z,955.79
2022-11-04T02:35:21.300Z,955.80
2022-11-04T02:36:21.287Z,955.84
2022-11-04T02:37:21.303Z,955.86
2022-11-04T02:38:21.264Z,955.96
2022-11-04T02:39:21.231Z,956.01
2022-11-04T02:40:21.219Z,956.10
2022-11-04T02:41:21.203Z,956.18
2022-11-04T02:42:21.225Z,956.12
2022-11-04T02:43:21.177Z,956.10
2022-11-04T02:44:21.157Z,956.02
2022-11-04T02:45:21.145Z,955.96
2022-11-04T02:46:21.127Z,956.07
2022-11-04T02:47:21.131Z,956.19
2022-11-04T02:48:21.081Z,956.15
2022-11-04T02:49:21.068Z,956.24
2022-11-04T02:50:21.052Z,956.27
2022-11-04T02:51:21.043Z,956.31
2022-11-04T02:52:21.048Z,956.34
2022-11-04T02:53:21.023Z,956.33
2022-11-04T02:54:20.975Z,956.37
2022-11-04T02:55:20.956Z,956.35
2022-11-04T02:56:20.948Z,956.31
2022-11-04T02:57:20.978Z,956.36
2022-11-04T02:58:20.970Z,956.34
2022-11-04T02:59:20.893Z,956.45
2022-11-04T03:00:20.888Z,956.38
2022-11-04T03:01:20.943Z,956.39
2022-11-04T03:02:20.895Z,956.40
2022-11-04T03:03:20.861Z,956.39
2022-11-04T03:04:20.815Z,956.44
2022-11-04T03:05:20.793Z,956.44
2022-11-04T03:06:20.782Z,956.44
2022-11-04T03:07:20.766Z,956.40
2022-11-04T03:08:20.862Z,956.45
2022-11-04T03:09:20.720Z,956.45
2022-11-04T03:10:20.709Z,956.44
2022-11-04T03:11:20.687Z,956.44
2022-11-04T03:12:20.675Z,956.48
2022-11-04T03:13:20.690Z,956.39
2022-11-04T03:14:20.637Z,956.42
2022-11-04T03:15:20.631Z,956.41
2022-11-04T03:16:20.607Z,956.42
2022-11-04T03:17:20.602Z,956.42
2022-11-04T03:18:20.605Z,956.40
2022-11-04T03:19:20.558Z,956.47
2022-11-04T03:20:20.535Z,956.49
2022-11-04T03:21:20.533Z,956.49
2022-11-04T03:22:20.537Z,956.55
2022-11-04T03:23:20.506Z,956.44
2022-11-04T03:24:21.467Z,956.43
2022-11-04T03:25:20.452Z,956.40
2022-11-04T03:26:20.457Z,956.37
2022-11-04T03:27:20.448Z,956.30
2022-11-04T03:28:20.422Z,956.31
2022-11-04T03:29:20.382Z,956.25
2022-11-04T03:30:20.366Z,956.30
2022-11-04T03:31:20.341Z,956.35
2022-11-04T03:32:20.331Z,956.43
2022-11-04T03:33:20.349Z,956.46
2022-11-04T03:34:20.300Z,956.40
2022-11-04T03:35:20.269Z,956.45
2022-11-04T03:36:20.266Z,956.50
2022-11-04T03:37:20.236Z,956.49
2022-11-04T03:38:20.259Z,956.52
2022-11-04T03:39:20.202Z,956.57
2022-11-04T03:40:20.193Z,956.54
2022-11-04T03:41:20.169Z,956.56
2022-11-04T03:42:20.621Z,956.63
2022-11-04T03:43:20.167Z,956.69
2022-11-04T03:44:20.122Z,956.72
2022-11-04T03:45:20.101Z,956.71
2022-11-04T03:46:20.079Z,956.75
2022-11-04T03:47:20.085Z,956.78
2022-11-04T03:48:20.085Z,956.82
2022-11-04T03:49:20.045Z,956.86
2022-11-04T03:50:20.019Z,956.95
2022-11-04T03:51:19.991Z,956.94
2022-11-04T03:52:20.991Z,956.98
2022-11-04T03:53:20.053Z,957.04
2022-11-04T03:54:19.950Z,957.07
2022-11-04T03:55:19.939Z,957.03
2022-11-04T03:56:20.933Z,957.00
2022-11-04T03:57:19.902Z,957.01
2022-11-04T03:58:19.912Z,957.00
2022-11-04T03:59:19.854Z,957.00
2022-11-04T04:00:20.861Z,956.94
2022-11-04T04:01:19.951Z,956.97
2022-11-04T04:02:19.853Z,956.97
2022-11-04T04:03:19.824Z,956.96
2022-11-04T04:04:19.781Z,956.96
2022-11-04T04:05:19.752Z,956.94
2022-11-04T04:06:19.746Z,956.96
2022-11-04T04:07:19.731Z,957.02
2022-11-04T04:08:19.739Z,957.03
2022-11-04T04:09:19.691Z,956.97
2022-11-04T04:10:19.677Z,956.96
2022-11-04T04:11:19.646Z,956.93
2022-11-04T04:12:19.647Z,956.95
2022-11-04T04:13:19.671Z,956.95
2022-11-04T04:14:19.609Z,956.90
2022-11-04T04:15:19.577Z,956.93
2022-11-04T04:16:23.279Z,956.88
2022-11-04T04:17:20.577Z,956.85
2022-11-04T04:18:19.564Z,956.86
2022-11-04T04:19:19.515Z,956.86
2022-11-04T04:20:19.546Z,956.85
2022-11-04T04:21:19.494Z,956.83
2022-11-04T04:22:19.463Z,956.86
2022-11-04T04:23:19.504Z,956.86
2022-11-04T04:24:19.425Z,956.83
2022-11-04T04:25:19.402Z,956.82
2022-11-04T04:26:19.391Z,956.90
2022-11-04T04:27:19.391Z,956.91
2022-11-04T04:28:19.416Z,956.83
2022-11-04T04:29:19.350Z,956.86
2022-11-04T04:30:19.318Z,956.94
2022-11-04T04:31:19.347Z,956.98
2022-11-04T04:32:19.289Z,956.98
2022-11-04T04:33:19.300Z,957.02
2022-11-04T04:34:19.249Z,957.08
2022-11-04T04:35:19.241Z,957.06
2022-11-04T04:36:19.218Z,957.07
2022-11-04T04:37:19.243Z,957.04
2022-11-04T04:38:19.216Z,957.12
2022-11-04T04:39:19.169Z,957.08
2022-11-04T04:40:23.921Z,957.10
2022-11-04T04:41:21.132Z,957.19
2022-11-04T04:42:19.113Z,957.22
2022-11-04T04:43:19.130Z,957.17
2022-11-04T04:44:19.081Z,957.17
2022-11-04T04:45:19.062Z,957.06
2022-11-04T04:46:19.040Z,957.02
2022-11-04T04:47:19.026Z,956.98
2022-11-04T04:48:19.035Z,956.90
2022-11-04T04:49:19.015Z,956.94
2022-11-04T04:50:18.988Z,957.00
2022-11-04T04:51:18.953Z,957.14
2022-11-04T04:52:18.946Z,957.21
2022-11-04T04:53:18.962Z,957.22
2022-11-04T04:54:18.911Z,957.23
2022-11-04T04:55:18.883Z,957.24
2022-11-04T04:56:18.876Z,957.23
2022-11-04T04:57:18.855Z,957.19
2022-11-04T04:58:18.867Z,957.19
2022-11-04T04:59:18.818Z,957.28
2022-11-04T05:00:18.820Z,957.24
2022-11-04T05:01:18.956Z,957.28
2022-11-04T05:02:18.978Z,957.28
2022-11-04T05:03:18.783Z,957.30
2022-11-04T05:04:18.813Z,957.26
2022-11-04T05:05:18.717Z,957.22
2022-11-04T05:06:18.694Z,957.24
2022-11-04T05:07:18.682Z,957.21
2022-11-04T05:08:18.704Z,957.31
2022-11-04T05:09:18.652Z,957.31
2022-11-04T05:10:18.624Z,957.40
2022-11-04T05:11:20.523Z,957.33
2022-11-04T05:12:20.594Z,957.37
2022-11-04T05:13:18.606Z,957.45
2022-11-04T05:14:18.553Z,957.49
2022-11-04T05:15:18.545Z,957.59
2022-11-04T05:16:18.523Z,957.59
2022-11-04T05:17:18.507Z,957.60
2022-11-04T05:18:18.619Z,957.60
2022-11-04T05:19:19.465Z,957.58
2022-11-04T05:20:18.445Z,957.59
2022-11-04T05:21:18.436Z,957.58
2022-11-04T05:22:18.404Z,957.62
2022-11-04T05:23:19.436Z,957.67
2022-11-04T05:24:18.383Z,957.68
2022-11-04T05:25:18.364Z,957.64
2022-11-04T05:26:18.332Z,957.58
2022-11-04T05:27:19.350Z,957.48
2022-11-04T05:28:18.341Z,957.39
2022-11-04T05:29:18.298Z,957.41
2022-11-04T05:30:18.292Z,957.43
2022-11-04T05:31:18.268Z,957.43
2022-11-04T05:32:18.252Z,957.52
2022-11-04T05:33:18.260Z,957.64
2022-11-04T05:34:18.215Z,957.64
2022-11-04T05:35:18.214Z,957.70
2022-11-04T05:36:18.190Z,957.71
2022-11-04T05:37:18.158Z,957.75
2022-11-04T05:38:18.175Z,957.71
2022-11-04T05:39:18.123Z,957.74
2022-11-04T05:40:18.102Z,957.76
2022-11-04T05:41:18.090Z,957.75
2022-11-04T05:42:18.076Z,957.71
2022-11-04T05:43:18.113Z,957.76
2022-11-04T05:44:18.134Z,957.78
2022-11-04T05:45:18.016Z,957.79
2022-11-04T05:46:18.004Z,957.82
2022-11-04T05:47:17.997Z,957.79
2022-11-04T05:48:18.066Z,957.77
2022-11-04T05:49:17.963Z,957.83
2022-11-04T05:50:17.936Z,957.83
2022-11-04T05:51:17.922Z,957.89
2022-11-04T05:52:17.951Z,957.98
2022-11-04T05:53:17.948Z,958.01
2022-11-04T05:54:17.895Z,958.10
2022-11-04T05:55:17.847Z,958.13
2022-11-04T05:56:17.881Z,958.20
2022-11-04T05:57:17.828Z,958.08
2022-11-04T05:58:17.808Z,958.18
2022-11-04T05:59:17.805Z,958.24
2022-11-04T06:00:17.759Z,958.26
2022-11-04T06:01:17.782Z,958.31
2022-11-04T06:02:17.845Z,958.26
2022-11-04T06:03:17.741Z,958.33
2022-11-04T06:04:17.709Z,958.41
2022-11-04T06:05:17.664Z,958.42
2022-11-04T06:06:17.657Z,958.52
2022-11-04T06:07:17.630Z,958.47
2022-11-04T06:08:17.621Z,958.40
2022-11-04T06:09:17.641Z,958.42
2022-11-04T06:10:17.584Z,958.34
2022-11-04T06:11:17.569Z,958.36
2022-11-04T06:12:17.578Z,958.30
2022-11-04T06:13:17.517Z,958.22
2022-11-04T06:14:18.955Z,958.23
2022-11-04T06:15:18.498Z,958.22
2022-11-04T06:16:17.487Z,958.19
2022-11-04T06:17:17.477Z,958.20
2022-11-04T06:18:17.441Z,958.21
2022-11-04T06:19:17.464Z,958.20
2022-11-04T06:20:17.405Z,958.18
2022-11-04T06:21:17.389Z,958.19
2022-11-04T06:22:17.379Z,958.21
2022-11-04T06:23:17.347Z,958.25
2022-11-04T06:24:17.355Z,958.20
2022-11-04T06:25:17.327Z,958.23
2022-11-04T06:26:18.334Z,958.21
2022-11-04T06:27:17.330Z,958.21
2022-11-04T06:28:17.279Z,958.30
2022-11-04T06:29:17.278Z,958.25
2022-11-04T06:30:17.228Z,958.26
2022-11-04T06:31:17.227Z,958.26
2022-11-04T06:32:17.224Z,958.29
2022-11-04T06:33:17.190Z,958.31
2022-11-04T06:34:17.200Z,958.28
2022-11-04T06:35:17.149Z,958.24
2022-11-04T06:36:17.120Z,958.21
2022-11-04T06:37:17.169Z,958.25
2022-11-04T06:38:17.114Z,958.22
2022-11-04T06:39:17.120Z,958.28
2022-11-04T06:40:17.080Z,958.21
2022-11-04T06:41:17.049Z,958.20
2022-11-04T06:42:17.059Z,958.23
2022-11-04T06:43:17.061Z,958.17
2022-11-04T06:44:17.025Z,958.15
2022-11-04T06:45:16.993Z,958.21
2022-11-04T06:46:16.963Z,958.12
2022-11-04T06:47:22.085Z,958.20
2022-11-04T06:48:18.911Z,958.17
2022-11-04T06:49:16.939Z,958.16
2022-11-04T06:50:16.896Z,958.15
2022-11-04T06:51:16.866Z,958.12
2022-11-04T06:52:16.860Z,958.16
2022-11-04T06:53:16.841Z,958.13
2022-11-04T06:54:16.851Z,958.23
2022-11-04T06:55:16.791Z,958.20
2022-11-04T06:56:16.882Z,958.29
2022-11-04T06:57:16.788Z,958.32
2022-11-04T06:58:16.791Z,958.34
2022-11-04T06:59:16.773Z,958.33
2022-11-04T07:00:16.719Z,958.38
2022-11-04T07:01:21.526Z,958.39
2022-11-04T07:02:18.918Z,958.37
2022-11-04T07:03:16.674Z,958.44
2022-11-04T07:04:16.683Z,958.40
2022-11-04T07:05:16.673Z,958.42
2022-11-04T07:06:16.616Z,958.46
2022-11-04T07:07:16.597Z,958.47
2022-11-04T07:08:16.573Z,958.52
2022-11-04T07:09:16.684Z,958.55
2022-11-04T07:10:16.539Z,958.62
2022-11-04T07:11:16.536Z,958.55
2022-11-04T07:12:16.539Z,958.57
2022-11-04T07:13:16.491Z,958.59
2022-11-04T07:14:16.507Z,958.53
2022-11-04T07:15:16.458Z,958.58
2022-11-04T07:16:16.434Z,958.60
2022-11-04T07:17:16.423Z,958.56
2022-11-04T07:18:16.399Z,958.61
2022-11-04T07:19:16.405Z,958.66
2022-11-04T07:20:16.359Z,958.63
2022-11-04T07:21:16.348Z,958.63
2022-11-04T07:22:16.326Z,958.65
2022-11-04T07:23:16.311Z,958.67
2022-11-04T07:24:16.332Z,958.68
2022-11-04T07:25:16.278Z,958.67
2022-11-04T07:26:16.262Z,958.64
2022-11-04T07:27:16.241Z,958.66
2022-11-04T07:28:16.232Z,958.59
2022-11-04T07:29:16.240Z,958.61
2022-11-04T07:30:16.199Z,958.70
2022-11-04T07:31:16.199Z,958.72
2022-11-04T07:32:16.163Z,958.73
2022-11-04T07:33:16.170Z,958.76
2022-11-04T07:34:16.146Z,958.77
2022-11-04T07:35:16.102Z,958.78
2022-11-04T07:36:16.084Z,958.83
2022-11-04T07:37:16.061Z,958.82
2022-11-04T07:38:16.117Z,958.90
2022-11-04T07:39:16.060Z,958.88
2022-11-04T07:40:16.014Z,958.83
2022-11-04T07:41:15.996Z,958.86
2022-11-04T07:42:15.974Z,958.82
2022-11-04T07:43:15.956Z,958.87
2022-11-04T07:44:15.965Z,958.83
2022-11-04T07:45:15.919Z,958.85
2022-11-04T07:46:15.899Z,958.83
2022-11-04T07:47:15.889Z,958.92
2022-11-04T07:48:15.862Z,958.95
2022-11-04T07:49:15.879Z,958.95
2022-11-04T07:50:15.855Z,958.94
2022-11-04T07:51:15.830Z,958.90
2022-11-04T07:52:15.793Z,958.94
2022-11-04T07:53:15.790Z,958.97
2022-11-04T07:54:15.802Z,958.96
2022-11-04T07:55:15.751Z,959.00
2022-11-04T07:56:15.725Z,959.00
2022-11-04T07:57:15.719Z,959.04
2022-11-04T07:58:15.694Z,958.97
2022-11-04T07:59:15.702Z,958.98
2022-11-04T08:00:15.654Z,958.99
2022-11-04T08:01:15.723Z,958.97
2022-11-04T08:02:18.519Z,958.95
2022-11-04T08:03:16.696Z,958.96
2022-11-04T08:04:15.614Z,959.02
2022-11-04T08:05:15.584Z,959.01
2022-11-04T08:06:15.557Z,959.02
2022-11-04T08:07:15.534Z,959.03
2022-11-04T08:08:15.533Z,959.00
2022-11-04T08:09:15.600Z,958.99
2022-11-04T08:10:15.497Z,958.96
2022-11-04T08:11:17.624Z,958.89
2022-11-04T08:12:16.515Z,959.03
2022-11-04T08:13:15.634Z,959.00
2022-11-04T08:14:15.466Z,958.99
2022-11-04T08:15:15.399Z,959.02
2022-11-04T08:16:15.390Z,959.07
2022-11-04T08:17:15.369Z,959.13
2022-11-04T08:18:15.362Z,959.15
2022-11-04T08:19:15.361Z,959.21
2022-11-04T08:20:15.317Z,959.23
2022-11-04T08:21:15.310Z,959.18
2022-11-04T08:22:15.283Z,959.22
2022-11-04T08:23:15.287Z,959.22
2022-11-04T08:24:15.286Z,959.25
2022-11-04T08:25:15.228Z,959.25
2022-11-04T08:26:15.225Z,959.22
2022-11-04T08:27:15.203Z,959.25
2022-11-04T08:28:15.179Z,959.26
2022-11-04T08:29:15.193Z,959.23
2022-11-04T08:30:15.143Z,959.24
2022-11-04T08:31:15.216Z,959.20
2022-11-04T08:32:15.110Z,959.18
2022-11-04T08:33:15.116Z,959.21
2022-11-04T08:34:15.105Z,959.19
2022-11-04T08:35:15.059Z,959.16
2022-11-04T08:36:15.055Z,959.21
2022-11-04T08:37:15.028Z,959.14
2022-11-04T08:38:15.004Z,959.11
2022-11-04T08:39:15.159Z,959.17
2022-11-04T08:40:14.998Z,959.15
2022-11-04T08:41:14.957Z,959.17
2022-11-04T08:42:14.963Z,959.19
2022-11-04T08:43:14.922Z,959.14
2022-11-04T08:44:14.951Z,959.21
2022-11-04T08:45:14.887Z,959.17
2022-11-04T08:46:14.882Z,959.14
2022-11-04T08:47:14.945Z,959.12
2022-11-04T08:48:14.845Z,959.17
2022-11-04T08:49:19.492Z,959.14
2022-11-04T08:50:16.814Z,959.13
2022-11-04T08:51:14.792Z,959.16
2022-11-04T08:52:14.771Z,959.23
2022-11-04T08:53:14.752Z,959.15
2022-11-04T08:54:14.774Z,959.16
2022-11-04T08:55:14.712Z,959.14
2022-11-04T08:56:14.697Z,959.14
2022-11-04T08:57:14.683Z,959.15
2022-11-04T08:58:14.705Z,959.20
2022-11-04T08:59:14.672Z,959.14
2022-11-04T09:00:14.627Z,959.16
2022-11-04T09:01:14.651Z,959.19
2022-11-04T09:02:14.797Z,959.18
2022-11-04T09:03:14.586Z,959.19
2022-11-04T09:04:14.734Z,959.17
2022-11-04T09:05:14.551Z,959.14
2022-11-04T09:06:14.528Z,959.15
2022-11-04T09:07:14.511Z,959.09
2022-11-04T09:08:14.484Z,959.08
2022-11-04T09:09:14.501Z,959.11
2022-11-04T09:10:14.457Z,959.13
2022-11-04T09:11:14.441Z,959.11
2022-11-04T09:12:14.419Z,959.08
2022-11-04T09:13:14.404Z,959.05
2022-11-04T09:14:15.415Z,959.01
2022-11-04T09:15:14.441Z,959.06
2022-11-04T09:16:14.349Z,959.02
2022-11-04T09:17:14.364Z,959.02
2022-11-04T09:18:14.325Z,958.98
2022-11-04T09:19:14.344Z,958.98
2022-11-04T09:20:14.298Z,958.97
2022-11-04T09:21:14.277Z,958.99
2022-11-04T09:22:14.256Z,959.00
2022-11-04T09:23:14.239Z,958.98
2022-11-04T09:24:14.246Z,958.94
2022-11-04T09:25:14.196Z,959.02
2022-11-04T09:26:14.247Z,958.92
2022-11-04T09:27:14.245Z,958.97
2022-11-04T09:28:14.148Z,958.80
2022-11-04T09:29:14.165Z,958.80
2022-11-04T09:30:14.115Z,958.83
2022-11-04T09:31:14.096Z,958.81
2022-11-04T09:32:14.071Z,958.85
2022-11-04T09:33:14.052Z,958.85
2022-11-04T09:34:14.103Z,958.80
2022-11-04T09:35:14.033Z,958.80
2022-11-04T09:36:13.997Z,958.77
2022-11-04T09:37:13.997Z,958.73
2022-11-04T09:38:13.974Z,958.77
2022-11-04T09:39:13.977Z,958.81
2022-11-04T09:40:13.933Z,958.76
2022-11-04T09:41:13.925Z,958.79
2022-11-04T09:42:13.962Z,958.85
2022-11-04T09:43:13.882Z,958.87
2022-11-04T09:44:13.902Z,958.91
2022-11-04T09:45:22.487Z,958.90
2022-11-04T09:46:15.926Z,958.95
2022-11-04T09:47:20.709Z,958.97
2022-11-04T09:48:15.799Z,958.99
2022-11-04T09:49:13.824Z,959.04
2022-11-04T09:50:13.781Z,959.01
2022-11-04T09:51:32.578Z,959.00
2022-11-04T09:52:15.720Z,959.13
2022-11-04T09:53:13.702Z,959.10
2022-11-04T09:54:13.710Z,959.07
2022-11-04T09:55:13.677Z,959.10
2022-11-04T09:56:13.662Z,959.10
2022-11-04T09:57:13.635Z,959.15
2022-11-04T09:58:13.734Z,959.15
2022-11-04T09:59:13.647Z,959.15
2022-11-04T10:00:13.592Z,959.22
2022-11-04T10:01:13.800Z,959.18
2022-11-04T10:02:17.720Z,959.22
2022-11-04T10:03:15.543Z,959.17
2022-11-04T10:04:13.546Z,959.17
2022-11-04T10:05:13.493Z,959.25
2022-11-04T10:06:13.487Z,959.22
2022-11-04T10:07:13.462Z,959.25
2022-11-04T10:08:13.461Z,959.27
2022-11-04T10:09:13.462Z,959.30
2022-11-04T10:10:13.419Z,959.37
2022-11-04T10:11:13.389Z,959.42
2022-11-04T10:12:13.466Z,959.43
2022-11-04T10:13:13.418Z,959.43
2022-11-04T10:14:13.493Z,959.47
2022-11-04T10:15:13.336Z,959.44
2022-11-04T10:16:13.306Z,959.47
2022-11-04T10:17:13.289Z,959.46
2022-11-04T10:18:13.270Z,959.41
2022-11-04T10:19:13.285Z,959.45
2022-11-04T10:20:13.236Z,959.42
2022-11-04T10:21:13.232Z,959.50
2022-11-04T10:22:13.206Z,959.38
2022-11-04T10:23:13.194Z,959.37
2022-11-04T10:24:13.204Z,959.38
2022-11-04T10:25:13.166Z,959.38
2022-11-04T10:26:13.128Z,959.35
2022-11-04T10:27:13.118Z,959.33
2022-11-04T10:28:13.099Z,959.24
2022-11-04T10:29:13.105Z,959.26
2022-11-04T10:30:13.201Z,959.38
2022-11-04T10:31:13.050Z,959.29
2022-11-04T10:32:14.449Z,959.34
2022-11-04T10:33:13.234Z,959.36
2022-11-04T10:34:13.031Z,959.39
2022-11-04T10:35:12.981Z,959.36
2022-11-04T10:36:12.992Z,959.26
2022-11-04T10:37:12.945Z,959.33
2022-11-04T10:38:12.935Z,959.34
2022-11-04T10:39:12.944Z,959.43
2022-11-04T10:40:12.898Z,959.39
2022-11-04T10:41:12.869Z,959.29
2022-11-04T10:42:12.878Z,959.18
2022-11-04T10:43:12.895Z,959.22
2022-11-04T10:44:12.854Z,959.21
2022-11-04T10:45:12.799Z,959.18
2022-11-04T10:46:13.050Z,959.13
2022-11-04T10:47:12.767Z,959.12
2022-11-04T10:48:12.764Z,959.15
2022-11-04T10:49:12.771Z,959.19
2022-11-04T10:50:29.998Z,959.06
2022-11-04T10:51:14.713Z,959.16
2022-11-04T10:52:12.684Z,959.25
2022-11-04T10:53:12.680Z,959.21
2022-11-04T10:54:12.756Z,959.20
2022-11-04T10:55:13.411Z,959.16
2022-11-04T10:56:12.640Z,959.16
2022-11-04T10:57:12.664Z,959.12
2022-11-04T10:58:12.588Z,959.12
2022-11-04T10:59:17.580Z,959.13
2022-11-04T11:00:14.566Z,959.07
2022-11-04T11:01:15.007Z,959.06
2022-11-04T11:02:13.644Z,958.95
2022-11-04T11:03:12.526Z,959.05
2022-11-04T11:04:12.521Z,959.02
2022-11-04T11:05:12.469Z,959.03
2022-11-04T11:06:12.465Z,958.99
2022-11-04T11:07:12.440Z,959.06
2022-11-04T11:08:12.424Z,959.00
2022-11-04T11:09:13.456Z,959.06
2022-11-04T11:10:12.390Z,958.98
2022-11-04T11:11:12.373Z,959.03
2022-11-04T11:12:44.208Z,958.93
2022-11-04T11:13:14.371Z,958.94
2022-11-04T11:14:12.372Z,959.02
2022-11-04T11:15:14.660Z,958.92
2022-11-04T11:16:13.310Z,958.97
2022-11-04T11:17:12.283Z,959.02
2022-11-04T11:18:12.257Z,958.85
2022-11-04T11:19:12.277Z,958.88
2022-11-04T11:20:12.261Z,958.83
2022-11-04T11:21:12.210Z,958.84
2022-11-04T11:22:12.183Z,958.82
2022-11-04T11:23:12.448Z,958.82
2022-11-04T11:24:12.184Z,958.81
2022-11-04T11:25:12.142Z,958.82
2022-11-04T11:26:12.151Z,958.80
2022-11-04T11:27:12.110Z,958.80
2022-11-04T11:28:12.095Z,958.82
2022-11-04T11:29:12.116Z,958.83
2022-11-04T11:30:12.113Z,958.81
2022-11-04T11:31:12.041Z,958.84
2022-11-04T11:32:12.031Z,958.83
2022-11-04T11:33:12.383Z,958.80
2022-11-04T11:34:12.051Z,958.81
2022-11-04T11:35:12.005Z,958.79
2022-11-04T11:36:11.975Z,958.76
2022-11-04T11:37:11.935Z,958.73
2022-11-04T11:38:11.933Z,958.80
2022-11-04T11:39:12.007Z,958.78
2022-11-04T11:40:11.953Z,958.83
2022-11-04T11:41:24.968Z,958.82
2022-11-04T11:42:16.673Z,958.85
2022-11-04T11:43:11.884Z,958.79
2022-11-04T11:44:11.862Z,958.90
2022-11-04T11:45:11.820Z,958.87
2022-11-04T11:46:11.784Z,958.95
2022-11-04T11:47:11.774Z,958.97
2022-11-04T11:48:11.744Z,958.94
2022-11-04T11:49:11.780Z,959.03
2022-11-04T11:50:11.708Z,958.97
2022-11-04T11:51:11.706Z,958.92
2022-11-04T11:52:11.714Z,958.94
2022-11-04T11:53:11.828Z,958.97
2022-11-04T11:54:11.669Z,958.89
2022-11-04T11:55:11.627Z,958.91
2022-11-04T11:56:11.610Z,958.95
2022-11-04T11:57:14.729Z,958.94
2022-11-04T12:01:22.079Z,958.96
2022-11-04T12:02:13.625Z,958.97
2022-11-04T12:03:13.230Z,958.98
2022-11-04T12:10:18.636Z,958.93
2022-11-04T12:11:13.588Z,958.92
2022-11-04T12:12:11.336Z,958.98
2022-11-04T12:13:18.568Z,958.98
2022-11-04T12:14:13.338Z,958.93
2022-11-04T12:15:11.295Z,958.99
2022-11-04T12:16:11.271Z,958.91
2022-11-04T12:17:11.255Z,958.94
2022-11-04T12:18:11.243Z,958.94
2022-11-04T12:19:11.251Z,958.97
2022-11-04T12:20:15.127Z,959.04
2022-11-04T12:21:12.188Z,959.03
2022-11-04T12:22:11.196Z,959.00
2022-11-04T12:23:11.418Z,959.03
2022-11-04T12:24:11.157Z,959.06
2022-11-04T12:25:11.136Z,959.11
2022-11-04T12:26:11.119Z,959.06
2022-11-04T12:27:11.095Z,959.07
2022-11-04T12:28:11.085Z,959.05
2022-11-04T12:29:11.091Z,959.02
2022-11-04T12:30:11.035Z,959.04
2022-11-04T12:31:11.015Z,959.06
2022-11-04T12:32:11.012Z,959.12
2022-11-04T12:33:11.439Z,959.10
2022-11-04T12:34:11.005Z,959.08
2022-11-04T12:35:10.952Z,959.06
2022-11-04T12:36:10.937Z,959.06
2022-11-04T12:37:10.916Z,959.08